Time;durP1;ratioP1;P1;durP2;ratioP2;P2;SDS_P1;SDS_P2;PMS_P1;PMS_P2;Temp;Humidity;BMP_temperature;BMP_pressure;BME280_temperature;BME280_humidity;BME280_pressure;Samples;Min_cycle;Max_cycle;Signal;HPM_P1;HPM_P2
2023/12/09 00:01:28;;;;;;;79.68;29.83;;;;;;;;;;5004410;28;20045;-61
2023/12/09 00:03:54;;;;;;;81.00;30.35;;;;;;;;;;5003743;28;20029;-61
2023/12/09 00:06:20;;;;;;;74.88;29.25;;;;;;;;;;5005957;28;20037;-61
2023/12/09 00:08:46;;;;;;;100.65;32.95;;;;;;;;;;5004707;28;20034;-61
2023/12/09 00:11:13;;;;;;;103.35;32.42;;;;;;;;;;5005898;28;20029;-61
2023/12/09 00:13:39;;;;;;;81.50;30.13;;;;;;;;;;5005376;28;20548;-61
2023/12/09 00:16:05;;;;;;;86.00;31.85;;;;;;;;;;5006573;28;20619;-61
2023/12/09 00:18:31;;;;;;;76.35;29.27;;;;;;;;;;5005910;28;20158;-61
2023/12/09 00:20:57;;;;;;;85.00;31.02;;;;;;;;;;5006495;28;20393;-61
2023/12/09 00:23:23;;;;;;;98.65;32.20;;;;;;;;;;5006868;28;20484;-61
2023/12/09 00:25:49;;;;;;;91.40;28.60;;;;;;;;;;5005404;28;20527;-61
2023/12/09 00:28:15;;;;;;;101.45;30.77;;;;;;;;;;5006054;28;20034;-61
2023/12/09 00:30:41;;;;;;;81.90;28.33;;;;;;;;;;5005586;28;20034;-61
2023/12/09 00:33:08;;;;;;;85.22;29.67;;;;;;;;;;5006735;28;20034;-61
2023/12/09 00:35:34;;;;;;;91.05;29.90;;;;;;;;;;5005522;28;20033;-61
2023/12/09 00:38:00;;;;;;;78.00;29.38;;;;;;;;;;5006031;28;20033;-61
2023/12/09 00:40:26;;;;;;;71.80;28.70;;;;;;;;;;5003882;28;20038;-61
2023/12/09 00:42:52;;;;;;;87.40;30.88;;;;;;;;;;5005304;28;20032;-61
2023/12/09 00:45:18;;;;;;;83.90;27.50;;;;;;;;;;5005853;28;20129;-61
2023/12/09 00:47:44;;;;;;;82.03;28.23;;;;;;;;;;5006192;28;20046;-61
2023/12/09 00:50:10;;;;;;;74.65;28.17;;;;;;;;;;5005723;28;20036;-61
2023/12/09 00:52:37;;;;;;;85.28;27.90;;;;;;;;;;5005851;28;20649;-61
2023/12/09 00:55:03;;;;;;;82.93;27.20;;;;;;;;;;5005743;28;20489;-61
2023/12/09 00:57:29;;;;;;;72.45;26.42;;;;;;;;;;5006094;28;20054;-61
2023/12/09 00:59:55;;;;;;;74.93;27.33;;;;;;;;;;5005315;28;20041;-61
2023/12/09 01:02:21;;;;;;;72.10;27.38;;;;;;;;;;5008791;28;20045;-61
2023/12/09 01:04:47;;;;;;;61.38;25.60;;;;;;;;;;5009940;28;20064;-61
2023/12/09 01:07:13;;;;;;;64.07;25.90;;;;;;;;;;5010340;28;20100;-61
2023/12/09 01:09:40;;;;;;;71.55;26.65;;;;;;;;;;5009880;28;20036;-61
2023/12/09 01:12:06;;;;;;;68.95;26.17;;;;;;;;;;5009946;28;20770;-61
2023/12/09 01:14:32;;;;;;;72.03;25.27;;;;;;;;;;5010025;28;20125;-61
2023/12/09 01:16:58;;;;;;;63.58;24.75;;;;;;;;;;5009358;28;20060;-61
2023/12/09 01:19:24;;;;;;;79.22;26.35;;;;;;;;;;5009423;28;20100;-61
2023/12/09 01:21:50;;;;;;;75.22;26.13;;;;;;;;;;5009669;28;20036;-61
2023/12/09 01:24:16;;;;;;;65.55;26.10;;;;;;;;;;5008859;28;20033;-61
2023/12/09 01:26:42;;;;;;;67.22;25.48;;;;;;;;;;5009454;28;20034;-61
2023/12/09 01:29:08;;;;;;;59.78;25.67;;;;;;;;;;5009294;28;20033;-61
2023/12/09 01:31:35;;;;;;;77.78;25.73;;;;;;;;;;5007922;28;20029;-61
2023/12/09 01:34:01;;;;;;;66.70;25.50;;;;;;;;;;5009335;28;21751;-61
2023/12/09 01:36:27;;;;;;;55.03;23.60;;;;;;;;;;5009043;28;20042;-61
2023/12/09 01:38:53;;;;;;;68.38;25.63;;;;;;;;;;5009258;28;20040;-61
2023/12/09 01:41:19;;;;;;;65.15;25.98;;;;;;;;;;5009557;28;20037;-61
2023/12/09 01:43:49;;;;;;;75.93;26.08;;;;;;;;;;5008142;28;20047;-61
2023/12/09 01:46:15;;;;;;;61.20;25.05;;;;;;;;;;5008731;28;20120;-61
2023/12/09 01:48:42;;;;;;;66.90;26.38;;;;;;;;;;5008741;28;20113;-61
2023/12/09 01:51:08;;;;;;;60.00;24.48;;;;;;;;;;5009332;28;20132;-61
2023/12/09 01:53:35;;;;;;;62.55;23.98;;;;;;;;;;5008766;28;20032;-61
2023/12/09 01:56:03;;;;;;;68.95;23.58;;;;;;;;;;5008607;28;20088;-61
2023/12/09 01:58:30;;;;;;;54.80;22.65;;;;;;;;;;5008890;28;20026;-61
2023/12/09 02:00:56;;;;;;;58.30;24.08;;;;;;;;;;5008394;28;20041;-61
2023/12/09 02:03:22;;;;;;;69.55;23.33;;;;;;;;;;5008353;28;20037;-61
2023/12/09 02:05:48;;;;;;;57.30;21.60;;;;;;;;;;5007691;28;20369;-61
2023/12/09 02:08:14;;;;;;;55.22;23.02;;;;;;;;;;5008439;28;20022;-61
2023/12/09 02:10:40;;;;;;;58.25;21.00;;;;;;;;;;5008100;28;20030;-61
2023/12/09 02:13:15;;;;;;;56.95;22.52;;;;;;;;;;5006907;28;20040;-61
2023/12/09 02:15:45;;;;;;;57.90;21.40;;;;;;;;;;5006902;28;21026;-61
2023/12/09 02:18:12;;;;;;;51.78;20.92;;;;;;;;;;5007882;28;20087;-61
2023/12/09 02:20:38;;;;;;;57.85;21.63;;;;;;;;;;5008052;28;21070;-61
2023/12/09 02:23:11;;;;;;;56.35;19.55;;;;;;;;;;5007561;28;21577;-61
2023/12/09 02:25:38;;;;;;;51.60;20.40;;;;;;;;;;5008366;28;20025;-61
2023/12/09 02:28:13;;;;;;;49.28;18.70;;;;;;;;;;5007468;28;20116;-61
2023/12/09 02:30:45;;;;;;;50.88;20.95;;;;;;;;;;5008187;28;20021;-61
2023/12/09 02:33:11;;;;;;;50.00;20.50;;;;;;;;;;5006712;28;20060;-61
2023/12/09 02:35:38;;;;;;;52.67;21.13;;;;;;;;;;5008111;28;21842;-61
2023/12/09 02:38:05;;;;;;;57.83;21.40;;;;;;;;;;5007355;28;20034;-61
2023/12/09 02:40:32;;;;;;;62.25;21.60;;;;;;;;;;5007584;28;20092;-61
2023/12/09 02:42:58;;;;;;;61.20;20.60;;;;;;;;;;5007337;28;20048;-61
2023/12/09 02:45:24;;;;;;;51.53;21.00;;;;;;;;;;5007315;28;20148;-61
2023/12/09 02:47:50;;;;;;;61.72;23.15;;;;;;;;;;5007577;28;20129;-61
2023/12/09 02:50:16;;;;;;;48.92;20.60;;;;;;;;;;5006642;28;20073;-61
2023/12/09 02:52:42;;;;;;;55.03;21.25;;;;;;;;;;5007705;28;20071;-61
2023/12/09 02:55:10;;;;;;;49.97;21.13;;;;;;;;;;5007400;28;20488;-61
2023/12/09 02:57:36;;;;;;;55.92;21.65;;;;;;;;;;5007238;28;20041;-61
2023/12/09 03:00:03;;;;;;;55.80;19.83;;;;;;;;;;5007317;28;20045;-61
2023/12/09 03:02:29;;;;;;;51.92;19.92;;;;;;;;;;5007396;28;20487;-61
2023/12/09 03:04:55;;;;;;;51.30;19.77;;;;;;;;;;5006082;28;20516;-61
2023/12/09 03:07:21;;;;;;;50.97;19.40;;;;;;;;;;5007379;28;20045;-61
2023/12/09 03:09:47;;;;;;;53.20;19.27;;;;;;;;;;5007181;28;20046;-61
2023/12/09 03:12:13;;;;;;;53.20;20.10;;;;;;;;;;5005650;28;20543;-61
2023/12/09 03:14:39;;;;;;;42.20;18.65;;;;;;;;;;5006238;28;20052;-61
2023/12/09 03:17:06;;;;;;;49.40;19.15;;;;;;;;;;5007243;28;20044;-61
2023/12/09 03:19:32;;;;;;;46.85;18.17;;;;;;;;;;5006664;28;20047;-61
2023/12/09 03:21:58;;;;;;;46.72;18.08;;;;;;;;;;5005973;28;20124;-61
2023/12/09 03:24:25;;;;;;;48.25;18.63;;;;;;;;;;5006727;28;22017;-61
2023/12/09 03:26:54;;;;;;;46.28;17.15;;;;;;;;;;5006868;28;20045;-61
2023/12/09 03:29:20;;;;;;;42.40;17.52;;;;;;;;;;5006387;28;20701;-61
2023/12/09 03:31:47;;;;;;;45.50;17.95;;;;;;;;;;5007094;28;20156;-61
2023/12/09 03:34:13;;;;;;;44.72;17.30;;;;;;;;;;5006653;28;20075;-61
2023/12/09 03:36:39;;;;;;;46.40;16.77;;;;;;;;;;5006578;28;20616;-61
2023/12/09 03:39:09;;;;;;;44.75;18.95;;;;;;;;;;5006666;28;20037;-61
2023/12/09 03:41:35;;;;;;;44.38;17.50;;;;;;;;;;5021922;28;20813;-61
2023/12/09 03:44:02;;;;;;;40.47;16.20;;;;;;;;;;5006554;28;20036;-61
2023/12/09 03:46:28;;;;;;;41.05;16.45;;;;;;;;;;5006582;28;20038;-61
2023/12/09 03:48:54;;;;;;;43.10;16.75;;;;;;;;;;5007096;28;20034;-61
2023/12/09 03:51:20;;;;;;;44.80;15.80;;;;;;;;;;5005087;28;20057;-61
2023/12/09 03:53:46;;;;;;;43.83;16.13;;;;;;;;;;5005765;28;20072;-61
2023/12/09 03:56:12;;;;;;;34.28;15.27;;;;;;;;;;5006188;28;20117;-61
2023/12/09 03:58:38;;;;;;;38.10;15.65;;;;;;;;;;5006454;28;20036;-61
2023/12/09 04:01:04;;;;;;;38.40;15.57;;;;;;;;;;5006173;28;20979;-61
2023/12/09 04:03:30;;;;;;;44.38;16.15;;;;;;;;;;5004433;28;20029;-61
2023/12/09 04:05:57;;;;;;;39.58;15.98;;;;;;;;;;5006628;28;20107;-61
2023/12/09 04:08:23;;;;;;;40.22;15.25;;;;;;;;;;5005899;28;20052;-61
2023/12/09 04:10:49;;;;;;;40.17;15.35;;;;;;;;;;5006359;28;20029;-61
2023/12/09 04:13:15;;;;;;;34.40;15.68;;;;;;;;;;5005966;28;20034;-61
2023/12/09 04:15:41;;;;;;;34.65;16.75;;;;;;;;;;5005840;28;20137;-61
2023/12/09 04:18:07;;;;;;;43.92;17.13;;;;;;;;;;5005937;28;20057;-61
2023/12/09 04:20:34;;;;;;;36.38;15.82;;;;;;;;;;5006499;28;20069;-61
2023/12/09 04:23:00;;;;;;;37.75;15.82;;;;;;;;;;5006026;28;20204;-61
2023/12/09 04:25:26;;;;;;;36.67;15.55;;;;;;;;;;5005039;28;20477;-61
2023/12/09 04:27:52;;;;;;;38.40;15.57;;;;;;;;;;5005938;28;20484;-61
2023/12/09 04:30:18;;;;;;;39.95;16.35;;;;;;;;;;5005735;28;20586;-61
2023/12/09 04:32:44;;;;;;;44.75;15.55;;;;;;;;;;5005469;28;20021;-61
2023/12/09 04:35:10;;;;;;;46.90;16.52;;;;;;;;;;5006178;28;20108;-61
2023/12/09 04:37:36;;;;;;;42.47;15.27;;;;;;;;;;5008882;28;20045;-61
2023/12/09 04:40:04;;;;;;;40.05;15.80;;;;;;;;;;5009304;28;20034;-61
2023/12/09 04:42:31;;;;;;;33.35;14.32;;;;;;;;;;5009687;28;20639;-61
2023/12/09 04:44:57;;;;;;;33.55;15.15;;;;;;;;;;5008714;28;20048;-61
2023/12/09 04:47:24;;;;;;;35.63;14.73;;;;;;;;;;5009907;28;21665;-61
2023/12/09 04:49:50;;;;;;;41.90;15.93;;;;;;;;;;5009825;28;20029;-61
2023/12/09 04:52:16;;;;;;;35.97;15.05;;;;;;;;;;5008296;28;20026;-61
2023/12/09 04:54:42;;;;;;;44.60;15.57;;;;;;;;;;5009968;28;20030;-61
2023/12/09 04:57:08;;;;;;;46.55;15.40;;;;;;;;;;5009167;28;20134;-61
2023/12/09 04:59:34;;;;;;;42.88;14.63;;;;;;;;;;5009926;28;20045;-61
2023/12/09 05:02:00;;;;;;;48.50;15.55;;;;;;;;;;5009609;28;20044;-61
2023/12/09 05:04:26;;;;;;;36.90;13.05;;;;;;;;;;5005078;28;20038;-61
2023/12/09 05:06:52;;;;;;;33.63;14.25;;;;;;;;;;5009466;28;20037;-61
2023/12/09 05:09:18;;;;;;;39.75;13.95;;;;;;;;;;5009712;28;20044;-61
2023/12/09 05:11:44;;;;;;;36.05;13.30;;;;;;;;;;5007664;28;20034;-61
2023/12/09 05:14:10;;;;;;;35.67;13.75;;;;;;;;;;5008275;28;20026;-61
2023/12/09 05:16:37;;;;;;;37.70;14.07;;;;;;;;;;5008983;28;20367;-61
2023/12/09 05:19:03;;;;;;;34.42;11.80;;;;;;;;;;5009312;28;20434;-61
2023/12/09 05:21:30;;;;;;;38.60;14.10;;;;;;;;;;5010229;28;20029;-61
2023/12/09 05:23:56;;;;;;;36.38;12.82;;;;;;;;;;5009071;28;20140;-61
2023/12/09 05:26:23;;;;;;;42.35;13.15;;;;;;;;;;5009427;28;20786;-61
2023/12/09 05:28:49;;;;;;;37.83;12.60;;;;;;;;;;5008531;28;20567;-61
2023/12/09 05:31:15;;;;;;;35.13;12.23;;;;;;;;;;5008686;28;20029;-61
2023/12/09 05:33:42;;;;;;;43.40;13.05;;;;;;;;;;5009072;28;20558;-61
2023/12/09 05:36:08;;;;;;;42.60;12.52;;;;;;;;;;5009510;28;20967;-61
2023/12/09 05:38:34;;;;;;;44.13;14.38;;;;;;;;;;5009884;28;20370;-61
2023/12/09 05:41:00;;;;;;;31.90;12.80;;;;;;;;;;5009426;28;20680;-61
2023/12/09 05:43:26;;;;;;;34.13;12.63;;;;;;;;;;5008553;28;20026;-61
2023/12/09 05:45:52;;;;;;;36.05;13.38;;;;;;;;;;5008808;28;20077;-61
2023/12/09 05:48:18;;;;;;;36.45;12.30;;;;;;;;;;5007397;28;20037;-61
2023/12/09 05:50:44;;;;;;;35.42;12.25;;;;;;;;;;5008475;28;20034;-61
2023/12/09 05:53:11;;;;;;;33.15;12.93;;;;;;;;;;5007965;28;20037;-61
2023/12/09 05:55:37;;;;;;;38.78;13.15;;;;;;;;;;5007911;28;20080;-61
2023/12/09 05:58:03;;;;;;;36.42;12.73;;;;;;;;;;5008792;28;21913;-61
2023/12/09 06:00:29;;;;;;;41.85;12.98;;;;;;;;;;5008786;28;20033;-61
2023/12/09 06:02:55;;;;;;;35.03;12.07;;;;;;;;;;5007607;28;20030;-61
2023/12/09 06:05:22;;;;;;;43.47;13.25;;;;;;;;;;5008949;28;20034;-61
2023/12/09 06:07:48;;;;;;;35.75;12.23;;;;;;;;;;5008179;28;21056;-61
2023/12/09 06:10:14;;;;;;;33.20;13.20;;;;;;;;;;5005778;28;20033;-61
2023/12/09 06:12:40;;;;;;;36.80;13.15;;;;;;;;;;5001265;28;20021;-62
2023/12/09 06:15:07;;;;;;;36.10;12.57;;;;;;;;;;5004501;28;20049;-62
2023/12/09 06:17:33;;;;;;;30.95;11.93;;;;;;;;;;5007254;28;20025;-62
2023/12/09 06:19:59;;;;;;;34.70;11.80;;;;;;;;;;5007885;28;20040;-62
2023/12/09 06:22:25;;;;;;;37.97;11.48;;;;;;;;;;5007911;28;20157;-62
2023/12/09 06:24:51;;;;;;;33.00;11.50;;;;;;;;;;5007689;28;20933;-62
2023/12/09 06:27:17;;;;;;;42.00;12.55;;;;;;;;;;5008092;28;20045;-62
2023/12/09 06:29:47;;;;;;;37.85;12.63;;;;;;;;;;5008248;28;20115;-62
2023/12/09 06:32:13;;;;;;;35.72;12.88;;;;;;;;;;5007631;28;20026;-62
2023/12/09 06:34:39;;;;;;;38.10;11.77;;;;;;;;;;5005518;28;20048;-62
2023/12/09 06:37:06;;;;;;;38.35;12.20;;;;;;;;;;5006602;28;20041;-62
2023/12/09 06:39:32;;;;;;;32.20;10.65;;;;;;;;;;5007354;28;20088;-62
2023/12/09 06:41:58;;;;;;;29.92;10.68;;;;;;;;;;5007568;28;20037;-62
2023/12/09 06:44:24;;;;;;;35.42;12.10;;;;;;;;;;5007459;28;20045;-62
2023/12/09 06:46:50;;;;;;;46.97;11.10;;;;;;;;;;5007029;28;21699;-62
2023/12/09 06:49:19;;;;;;;38.75;11.40;;;;;;;;;;5007677;28;20438;-62
2023/12/09 06:51:45;;;;;;;30.15;11.25;;;;;;;;;;5007207;28;20029;-62
2023/12/09 06:54:12;;;;;;;32.70;10.40;;;;;;;;;;5007489;28;20076;-62
2023/12/09 06:56:38;;;;;;;39.42;11.27;;;;;;;;;;5007294;28;20872;-62
2023/12/09 06:59:04;;;;;;;35.88;10.00;;;;;;;;;;5006677;28;20033;-62
2023/12/09 07:01:30;;;;;;;30.38;10.20;;;;;;;;;;5006383;28;20549;-62
2023/12/09 07:03:57;;;;;;;32.55;10.88;;;;;;;;;;5006667;28;21077;-62
2023/12/09 07:06:24;;;;;;;27.23;9.32;;;;;;;;;;5007362;28;20064;-62
2023/12/09 07:08:50;;;;;;;27.98;9.25;;;;;;;;;;5006854;28;21353;-62
2023/12/09 07:11:17;;;;;;;31.58;10.20;;;;;;;;;;5007005;28;20037;-62
2023/12/09 07:13:43;;;;;;;27.70;9.38;;;;;;;;;;5006336;28;20132;-62
2023/12/09 07:16:10;;;;;;;30.50;10.60;;;;;;;;;;5007416;28;20704;-62
2023/12/09 07:18:40;;;;;;;28.42;10.15;;;;;;;;;;5007177;28;20160;-62
2023/12/09 07:21:06;;;;;;;29.45;10.63;;;;;;;;;;5007330;28;20103;-62
2023/12/09 07:23:32;;;;;;;31.35;9.73;;;;;;;;;;5007265;28;20026;-62
2023/12/09 07:25:59;;;;;;;26.40;9.88;;;;;;;;;;5006711;28;20033;-62
2023/12/09 07:28:25;;;;;;;29.33;10.63;;;;;;;;;;5007302;28;20046;-62
2023/12/09 07:30:52;;;;;;;28.50;10.07;;;;;;;;;;5006574;28;20022;-62
2023/12/09 07:33:18;;;;;;;26.45;10.30;;;;;;;;;;5006383;28;20527;-62
2023/12/09 07:35:44;;;;;;;24.20;8.85;;;;;;;;;;5007010;28;20041;-60
2023/12/09 07:38:10;;;;;;;26.27;9.65;;;;;;;;;;5005942;28;20030;-60
2023/12/09 07:40:36;;;;;;;27.20;8.95;;;;;;;;;;5005999;28;20068;-60
2023/12/09 07:43:03;;;;;;;34.63;10.15;;;;;;;;;;5005492;28;20033;-60
2023/12/09 07:45:29;;;;;;;25.83;8.77;;;;;;;;;;5005251;28;20049;-60
2023/12/09 07:47:56;;;;;;;25.30;9.63;;;;;;;;;;5004483;28;20140;-59
2023/12/09 07:50:22;;;;;;;23.58;9.50;;;;;;;;;;5006024;28;20673;-60
2023/12/09 07:52:49;;;;;;;27.55;9.02;;;;;;;;;;5006194;28;20021;-60
2023/12/09 07:55:15;;;;;;;26.00;9.80;;;;;;;;;;5006181;28;20599;-60
2023/12/09 07:57:41;;;;;;;32.92;11.18;;;;;;;;;;5005750;28;21093;-60
2023/12/09 08:00:08;;;;;;;30.38;9.50;;;;;;;;;;5006179;28;20040;-60
2023/12/09 08:02:34;;;;;;;28.80;8.82;;;;;;;;;;5006319;28;20030;-60
2023/12/09 08:05:00;;;;;;;31.48;9.70;;;;;;;;;;5006156;28;20044;-60
2023/12/09 08:07:26;;;;;;;29.15;9.93;;;;;;;;;;5005813;28;20026;-60
2023/12/09 08:09:53;;;;;;;34.63;9.50;;;;;;;;;;5005361;28;20052;-60
2023/12/09 08:12:19;;;;;;;27.48;8.77;;;;;;;;;;5005967;28;20033;-59
2023/12/09 08:14:45;;;;;;;29.33;9.15;;;;;;;;;;5006260;28;20458;-60
2023/12/09 08:17:11;;;;;;;27.20;8.30;;;;;;;;;;5006228;28;20030;-60
2023/12/09 08:19:37;;;;;;;30.15;9.40;;;;;;;;;;5005522;28;20065;-60
2023/12/09 08:22:03;;;;;;;34.45;8.98;;;;;;;;;;5005980;28;20032;-60
2023/12/09 08:24:29;;;;;;;24.67;8.43;;;;;;;;;;5006695;28;20925;-59
2023/12/09 08:26:55;;;;;;;33.95;10.38;;;;;;;;;;5006086;28;20038;-60
2023/12/09 08:29:21;;;;;;;33.42;10.02;;;;;;;;;;5006032;28;20037;-60
2023/12/09 08:31:49;;;;;;;29.02;9.27;;;;;;;;;;5005333;28;20099;-57
2023/12/09 08:34:16;;;;;;;34.47;10.45;;;;;;;;;;5006367;28;20029;-58
2023/12/09 08:36:42;;;;;;;23.23;9.10;;;;;;;;;;5005843;28;20029;-58
2023/12/09 08:39:08;;;;;;;23.08;7.68;;;;;;;;;;5005874;28;20034;-58
2023/12/09 08:41:34;;;;;;;23.50;8.02;;;;;;;;;;5005609;28;20115;-57
2023/12/09 08:44:00;;;;;;;28.50;8.90;;;;;;;;;;5005552;28;22010;-60
2023/12/09 08:46:26;;;;;;;25.48;8.18;;;;;;;;;;5005736;28;20033;-60
2023/12/09 08:48:52;;;;;;;31.17;8.40;;;;;;;;;;5006303;28;20034;-60
2023/12/09 08:51:18;;;;;;;23.88;7.50;;;;;;;;;;5005425;28;20057;-60
2023/12/09 08:53:45;;;;;;;20.30;7.85;;;;;;;;;;5006376;28;20109;-60
2023/12/09 08:56:11;;;;;;;31.85;8.10;;;;;;;;;;5005928;28;20037;-57
2023/12/09 08:58:37;;;;;;;21.77;7.28;;;;;;;;;;5005646;28;20797;-58
2023/12/09 09:01:03;;;;;;;26.63;7.22;;;;;;;;;;5002793;28;20089;-60
2023/12/09 09:03:30;;;;;;;29.05;8.27;;;;;;;;;;5004911;28;20052;-59
2023/12/09 09:05:56;;;;;;;28.67;8.30;;;;;;;;;;5005185;28;20177;-60
2023/12/09 09:08:22;;;;;;;21.02;6.95;;;;;;;;;;5003592;28;20034;-60
2023/12/09 09:10:49;;;;;;;21.90;7.07;;;;;;;;;;5005070;28;20030;-60
2023/12/09 09:13:15;;;;;;;19.02;6.20;;;;;;;;;;5005492;28;20048;-60
2023/12/09 09:15:42;;;;;;;26.58;7.22;;;;;;;;;;5005846;28;20499;-60
2023/12/09 09:18:08;;;;;;;17.30;6.30;;;;;;;;;;5005735;28;20033;-60
2023/12/09 09:20:34;;;;;;;29.58;6.78;;;;;;;;;;5004245;28;20091;-59
2023/12/09 09:23:00;;;;;;;31.58;7.70;;;;;;;;;;5007522;28;20922;-60
2023/12/09 09:25:26;;;;;;;16.27;5.50;;;;;;;;;;5009379;28;20044;-59
2023/12/09 09:27:52;;;;;;;26.63;7.97;;;;;;;;;;5008979;28;20030;-60
2023/12/09 09:30:22;;;;;;;23.65;6.07;;;;;;;;;;5008862;28;20032;-60
2023/12/09 09:32:48;;;;;;;20.45;6.05;;;;;;;;;;5009361;28;20038;-60
2023/12/09 09:35:14;;;;;;;28.35;7.63;;;;;;;;;;5009627;28;20057;-60
2023/12/09 09:37:40;;;;;;;22.70;6.68;;;;;;;;;;5009328;28;20065;-60
2023/12/09 09:40:07;;;;;;;17.30;5.22;;;;;;;;;;5008099;28;20037;-59
2023/12/09 09:42:36;;;;;;;22.08;5.38;;;;;;;;;;5009328;28;20501;-60
2023/12/09 09:45:20;;;;;;;19.00;4.85;;;;;;;;;;5009101;28;20080;-60
2023/12/09 09:47:50;;;;;;;20.55;5.55;;;;;;;;;;5009217;28;20394;-60
2023/12/09 09:50:21;;;;;;;17.45;4.72;;;;;;;;;;5008729;28;20040;-60
2023/12/09 09:52:48;;;;;;;20.38;5.20;;;;;;;;;;5008597;28;20048;-60
2023/12/09 09:55:15;;;;;;;19.27;5.07;;;;;;;;;;5008496;28;20034;-60
2023/12/09 09:57:42;;;;;;;21.55;4.60;;;;;;;;;;5009507;28;20045;-60
2023/12/09 10:00:13;;;;;;;23.08;4.75;;;;;;;;;;5008696;28;20033;-60
2023/12/09 10:02:42;;;;;;;19.92;5.22;;;;;;;;;;5008557;28;20494;-61
2023/12/09 10:05:08;;;;;;;20.38;4.60;;;;;;;;;;5008993;28;20033;-60
2023/12/09 10:07:35;;;;;;;17.08;4.28;;;;;;;;;;5008500;28;20034;-61
2023/12/09 10:10:02;;;;;;;17.27;4.15;;;;;;;;;;5007987;28;20079;-61
2023/12/09 10:12:29;;;;;;;16.83;4.45;;;;;;;;;;5008119;28;20057;-61
2023/12/09 10:14:56;;;;;;;18.00;3.92;;;;;;;;;;5008252;28;20033;-60
2023/12/09 10:17:22;;;;;;;24.08;5.35;;;;;;;;;;5006740;28;20401;-61
2023/12/09 10:19:49;;;;;;;14.93;3.63;;;;;;;;;;5007339;28;20040;-60
2023/12/09 10:22:15;;;;;;;24.67;4.93;;;;;;;;;;5007580;28;20080;-60
2023/12/09 10:24:48;;;;;;;15.20;4.60;;;;;;;;;;5008845;28;20044;-61
2023/12/09 10:27:14;;;;;;;16.90;4.47;;;;;;;;;;5008092;28;20045;-60
2023/12/09 10:29:41;;;;;;;16.55;4.50;;;;;;;;;;5023571;28;20721;-61
2023/12/09 10:32:07;;;;;;;16.42;4.53;;;;;;;;;;5008076;28;20185;-60
2023/12/09 10:34:33;;;;;;;16.70;4.05;;;;;;;;;;5007127;28;20017;-61
2023/12/09 10:36:59;;;;;;;23.63;4.97;;;;;;;;;;5008261;28;21769;-61
2023/12/09 10:39:25;;;;;;;18.35;4.55;;;;;;;;;;5008515;28;20033;-61
2023/12/09 10:41:51;;;;;;;16.38;3.75;;;;;;;;;;5008222;28;20038;-61
2023/12/09 10:44:18;;;;;;;14.48;3.92;;;;;;;;;;5008691;28;20656;-61
2023/12/09 10:46:44;;;;;;;12.50;3.85;;;;;;;;;;5008098;28;20524;-61
2023/12/09 10:49:10;;;;;;;16.02;4.07;;;;;;;;;;5008829;28;20542;-61
2023/12/09 10:51:36;;;;;;;14.38;3.30;;;;;;;;;;5007904;28;20492;-61
2023/12/09 10:54:02;;;;;;;18.15;3.92;;;;;;;;;;5008140;28;20076;-60
2023/12/09 10:56:28;;;;;;;16.38;3.88;;;;;;;;;;5008118;28;20056;-60
2023/12/09 10:58:56;;;;;;;18.38;3.85;;;;;;;;;;5008314;28;20034;-61
2023/12/09 11:01:22;;;;;;;12.10;2.90;;;;;;;;;;5007383;28;20025;-61
2023/12/09 11:03:48;;;;;;;14.43;3.28;;;;;;;;;;5007402;28;20457;-61
2023/12/09 11:06:16;;;;;;;13.68;3.17;;;;;;;;;;5007912;28;20048;-61
2023/12/09 11:08:43;;;;;;;17.95;3.35;;;;;;;;;;5006431;28;20045;-61
2023/12/09 11:11:09;;;;;;;12.80;3.13;;;;;;;;;;5006733;28;20054;-61
2023/12/09 11:13:36;;;;;;;14.95;3.35;;;;;;;;;;5006908;28;20025;-61
2023/12/09 11:16:12;;;;;;;18.40;3.97;;;;;;;;;;5008048;28;20029;-60
2023/12/09 11:18:50;;;;;;;14.80;4.00;;;;;;;;;;5007514;28;20033;-61
2023/12/09 11:21:17;;;;;;;11.65;3.25;;;;;;;;;;5007182;28;20111;-60
2023/12/09 11:23:52;;;;;;;16.98;3.95;;;;;;;;;;5007348;28;20952;-61
2023/12/09 11:26:19;;;;;;;12.85;2.58;;;;;;;;;;5008029;28;20144;-61
2023/12/09 11:29:03;;;;;;;11.82;2.90;;;;;;;;;;5007184;28;20551;-60
2023/12/09 11:31:36;;;;;;;10.63;2.63;;;;;;;;;;5006566;28;20036;-60
2023/12/09 11:34:03;;;;;;;15.60;3.08;;;;;;;;;;5005772;28;20548;-61
2023/12/09 11:36:29;;;;;;;16.75;2.90;;;;;;;;;;5006132;28;20035;-61
2023/12/09 11:38:56;;;;;;;9.43;2.63;;;;;;;;;;5006426;28;20057;-61
2023/12/09 11:41:22;;;;;;;12.30;2.80;;;;;;;;;;5006261;28;20651;-61
2023/12/09 11:43:48;;;;;;;12.70;3.35;;;;;;;;;;5005732;28;20033;-60
2023/12/09 11:46:14;;;;;;;16.67;2.95;;;;;;;;;;5006283;28;20075;-60
2023/12/09 11:48:40;;;;;;;11.45;2.70;;;;;;;;;;5006078;28;20033;-60
2023/12/09 11:51:07;;;;;;;10.95;2.67;;;;;;;;;;5007019;28;20076;-60
2023/12/09 11:53:34;;;;;;;14.80;2.83;;;;;;;;;;5005579;28;20029;-60
2023/12/09 11:56:00;;;;;;;19.75;2.80;;;;;;;;;;5007205;28;20026;-60
2023/12/09 11:58:26;;;;;;;11.75;2.75;;;;;;;;;;5006031;28;20564;-60
2023/12/09 12:00:52;;;;;;;12.90;2.70;;;;;;;;;;5006395;28;20033;-60
2023/12/09 12:03:19;;;;;;;10.18;2.63;;;;;;;;;;5006712;28;20041;-60
2023/12/09 12:05:45;;;;;;;12.95;3.33;;;;;;;;;;5006733;28;20117;-60
2023/12/09 12:08:15;;;;;;;10.80;2.83;;;;;;;;;;5005241;28;20768;-60
2023/12/09 12:10:41;;;;;;;11.13;2.85;;;;;;;;;;5006291;28;20038;-60
2023/12/09 12:13:07;;;;;;;11.10;2.83;;;;;;;;;;5006253;28;20053;-60
2023/12/09 12:15:35;;;;;;;13.65;2.88;;;;;;;;;;5006540;28;20025;-60
2023/12/09 12:18:01;;;;;;;14.35;3.75;;;;;;;;;;5006653;28;20029;-60
2023/12/09 12:20:27;;;;;;;11.30;2.63;;;;;;;;;;5005898;28;20034;-60
2023/12/09 12:22:53;;;;;;;11.55;3.08;;;;;;;;;;5005987;28;20037;-60
2023/12/09 12:25:20;;;;;;;8.13;2.28;;;;;;;;;;5006220;28;20080;-60
2023/12/09 12:27:46;;;;;;;11.60;2.97;;;;;;;;;;5005087;28;20508;-60
2023/12/09 12:30:13;;;;;;;11.35;3.30;;;;;;;;;;5006540;28;20216;-60
2023/12/09 12:32:39;;;;;;;14.60;2.85;;;;;;;;;;5005673;28;20045;-60
2023/12/09 12:35:08;;;;;;;11.35;2.80;;;;;;;;;;5006051;28;20057;-60
2023/12/09 12:37:34;;;;;;;10.25;2.78;;;;;;;;;;5006200;28;20049;-60
2023/12/09 12:40:00;;;;;;;7.78;2.60;;;;;;;;;;5005465;28;20061;-60
2023/12/09 12:42:27;;;;;;;10.57;2.72;;;;;;;;;;5005259;28;20079;-60
2023/12/09 12:44:53;;;;;;;12.50;3.53;;;;;;;;;;5005180;28;20041;-60
2023/12/09 12:47:19;;;;;;;13.75;3.40;;;;;;;;;;5005346;28;20129;-60
2023/12/09 12:49:45;;;;;;;17.45;2.85;;;;;;;;;;5004427;28;20785;-60
2023/12/09 12:52:11;;;;;;;15.90;2.75;;;;;;;;;;5004695;28;20060;-60
2023/12/09 12:54:38;;;;;;;13.00;2.38;;;;;;;;;;5005064;28;20069;-60
2023/12/09 12:57:04;;;;;;;13.70;4.03;;;;;;;;;;5006555;28;20133;-60
2023/12/09 12:59:30;;;;;;;12.63;2.33;;;;;;;;;;5009339;28;20194;-60
2023/12/09 13:01:59;;;;;;;14.13;2.80;;;;;;;;;;5009712;28;20034;-60
2023/12/09 13:04:25;;;;;;;12.02;2.40;;;;;;;;;;5009411;28;20033;-60
2023/12/09 13:06:51;;;;;;;13.68;3.38;;;;;;;;;;5009502;28;20040;-60
2023/12/09 13:09:17;;;;;;;9.88;2.35;;;;;;;;;;5009153;28;20112;-60
2023/12/09 13:11:43;;;;;;;9.10;2.70;;;;;;;;;;5009461;28;20038;-60
2023/12/09 13:14:09;;;;;;;12.75;2.95;;;;;;;;;;5009479;28;20868;-60
2023/12/09 13:16:37;;;;;;;13.60;2.78;;;;;;;;;;5010158;28;20036;-60
2023/12/09 13:19:03;;;;;;;10.38;2.10;;;;;;;;;;5008887;28;20659;-60
2023/12/09 13:21:29;;;;;;;11.55;2.30;;;;;;;;;;5008919;28;20029;-60
2023/12/09 13:23:55;;;;;;;9.18;2.03;;;;;;;;;;5009544;28;20033;-60
2023/12/09 13:26:21;;;;;;;12.30;2.40;;;;;;;;;;5009531;28;20080;-60
2023/12/09 13:28:47;;;;;;;13.05;2.75;;;;;;;;;;5008421;28;20239;-60
2023/12/09 13:31:15;;;;;;;11.52;3.47;;;;;;;;;;5008758;28;20029;-60
2023/12/09 13:33:41;;;;;;;13.70;2.20;;;;;;;;;;5008821;28;20564;-60
2023/12/09 13:36:09;;;;;;;10.27;2.78;;;;;;;;;;5009365;28;20041;-60
2023/12/09 13:38:35;;;;;;;13.32;2.72;;;;;;;;;;5008544;28;20179;-60
2023/12/09 13:41:03;;;;;;;18.35;2.72;;;;;;;;;;5008944;28;20079;-60
2023/12/09 13:43:29;;;;;;;10.35;3.33;;;;;;;;;;5008278;28;20045;-60
2023/12/09 13:45:55;;;;;;;10.80;2.60;;;;;;;;;;5009040;28;20049;-60
2023/12/09 13:48:21;;;;;;;7.97;2.33;;;;;;;;;;5006965;28;20060;-60
2023/12/09 13:50:48;;;;;;;11.60;2.42;;;;;;;;;;5009018;28;20036;-60
2023/12/09 13:53:14;;;;;;;9.38;2.72;;;;;;;;;;5009035;28;20026;-60
2023/12/09 13:55:40;;;;;;;11.10;2.53;;;;;;;;;;5008993;28;20034;-60
2023/12/09 13:58:06;;;;;;;13.57;2.40;;;;;;;;;;5008912;28;20041;-60
2023/12/09 14:00:32;;;;;;;11.80;2.72;;;;;;;;;;5008920;28;20449;-60
2023/12/09 14:02:58;;;;;;;9.95;2.28;;;;;;;;;;5008976;28;20096;-60
2023/12/09 14:05:25;;;;;;;12.23;1.95;;;;;;;;;;5008271;28;21692;-60
2023/12/09 14:07:51;;;;;;;14.98;2.25;;;;;;;;;;5007242;28;20477;-60
2023/12/09 14:10:17;;;;;;;12.48;2.28;;;;;;;;;;5007904;28;20085;-60
2023/12/09 14:12:43;;;;;;;9.75;2.00;;;;;;;;;;5008634;28;20405;-60
2023/12/09 14:15:11;;;;;;;16.55;3.08;;;;;;;;;;5008421;28;20035;-60
2023/12/09 14:17:41;;;;;;;10.77;2.30;;;;;;;;;;5008519;28;20079;-60
2023/12/09 14:20:09;;;;;;;13.07;2.40;;;;;;;;;;5007664;28;20041;-60